sensor_id;sensor_type;location;lat;lon;timestamp;temperature;humidity
68609;SHT31;55581;46.718;7.690;2023-12-04T00:01:43;-4.13;92.18
68609;SHT31;55581;46.718;7.690;2023-12-04T00:04:10;-4.03;92.76
68609;SHT31;55581;46.718;7.690;2023-12-04T00:06:37;-3.94;93.19
68609;SHT31;55581;46.718;7.690;2023-12-04T00:09:02;-3.85;92.83
68609;SHT31;55581;46.718;7.690;2023-12-04T00:11:28;-3.85;93.27
68609;SHT31;55581;46.718;7.690;2023-12-04T00:13:53;-3.82;93.13
68609;SHT31;55581;46.718;7.690;2023-12-04T00:16:19;-3.85;92.96
68609;SHT31;55581;46.718;7.690;2023-12-04T00:18:44;-3.81;92.86
68609;SHT31;55581;46.718;7.690;2023-12-04T00:21:10;-3.75;93.50
68609;SHT31;55581;46.718;7.690;2023-12-04T00:23:35;-3.67;93.13
68609;SHT31;55581;46.718;7.690;2023-12-04T00:26:00;-3.68;93.19
68609;SHT31;55581;46.718;7.690;2023-12-04T00:28:28;-3.73;92.68
68609;SHT31;55581;46.718;7.690;2023-12-04T00:30:55;-3.70;92.75
68609;SHT31;55581;46.718;7.690;2023-12-04T00:33:21;-3.70;93.28
68609;SHT31;55581;46.718;7.690;2023-12-04T00:35:49;-3.68;93.21
68609;SHT31;55581;46.718;7.690;2023-12-04T00:38:15;-3.75;93.02
68609;SHT31;55581;46.718;7.690;2023-12-04T00:40:43;-3.73;92.26
68609;SHT31;55581;46.718;7.690;2023-12-04T00:43:10;-3.77;91.01
68609;SHT31;55581;46.718;7.690;2023-12-04T00:45:35;-3.84;91.50
68609;SHT31;55581;46.718;7.690;2023-12-04T00:48:01;-3.89;92.01
68609;SHT31;55581;46.718;7.690;2023-12-04T00:50:27;-3.89;92.35
68609;SHT31;55581;46.718;7.690;2023-12-04T00:52:52;-3.88;92.39
68609;SHT31;55581;46.718;7.690;2023-12-04T00:55:18;-3.86;91.32
68609;SHT31;55581;46.718;7.690;2023-12-04T00:57:46;-3.86;91.58
68609;SHT31;55581;46.718;7.690;2023-12-04T01:00:13;-3.89;91.94
68609;SHT31;55581;46.718;7.690;2023-12-04T01:02:41;-3.88;91.56
68609;SHT31;55581;46.718;7.690;2023-12-04T01:05:06;-3.85;91.92
68609;SHT31;55581;46.718;7.690;2023-12-04T01:07:32;-3.84;92.32
68609;SHT31;55581;46.718;7.690;2023-12-04T01:09:57;-3.71;93.66
68609;SHT31;55581;46.718;7.690;2023-12-04T01:12:23;-3.68;92.69
68609;SHT31;55581;46.718;7.690;2023-12-04T01:14:48;-3.67;91.89
68609;SHT31;55581;46.718;7.690;2023-12-04T01:17:14;-3.60;92.47
68609;SHT31;55581;46.718;7.690;2023-12-04T01:19:39;-3.58;92.53
68609;SHT31;55581;46.718;7.690;2023-12-04T01:22:06;-3.58;92.05
68609;SHT31;55581;46.718;7.690;2023-12-04T01:24:32;-3.53;91.55
68609;SHT31;55581;46.718;7.690;2023-12-04T01:26:57;-3.61;91.50
68609;SHT31;55581;46.718;7.690;2023-12-04T01:29:25;-3.68;90.95
68609;SHT31;55581;46.718;7.690;2023-12-04T01:31:53;-3.74;91.54
68609;SHT31;55581;46.718;7.690;2023-12-04T01:34:18;-3.70;92.10
68609;SHT31;55581;46.718;7.690;2023-12-04T01:36:44;-3.67;91.14
68609;SHT31;55581;46.718;7.690;2023-12-04T01:39:11;-3.71;90.45
68609;SHT31;55581;46.718;7.690;2023-12-04T01:41:37;-3.75;90.23
68609;SHT31;55581;46.718;7.690;2023-12-04T01:44:02;-3.68;90.76
68609;SHT31;55581;46.718;7.690;2023-12-04T01:46:28;-3.61;91.02
68609;SHT31;55581;46.718;7.690;2023-12-04T01:48:55;-3.57;91.77
68609;SHT31;55581;46.718;7.690;2023-12-04T01:51:21;-3.53;92.33
68609;SHT31;55581;46.718;7.690;2023-12-04T01:53:48;-3.44;91.60
68609;SHT31;55581;46.718;7.690;2023-12-04T01:56:15;-3.40;91.07
68609;SHT31;55581;46.718;7.690;2023-12-04T01:58:42;-3.43;92.00
68609;SHT31;55581;46.718;7.690;2023-12-04T02:01:11;-3.35;92.11
68609;SHT31;55581;46.718;7.690;2023-12-04T02:03:37;-3.29;92.28
68609;SHT31;55581;46.718;7.690;2023-12-04T02:06:05;-3.17;92.91
68609;SHT31;55581;46.718;7.690;2023-12-04T02:08:31;-2.95;93.76
68609;SHT31;55581;46.718;7.690;2023-12-04T02:10:56;-2.81;93.47
68609;SHT31;55581;46.718;7.690;2023-12-04T02:13:22;-2.68;93.30
68609;SHT31;55581;46.718;7.690;2023-12-04T02:15:49;-2.52;92.97
68609;SHT31;55581;46.718;7.690;2023-12-04T02:18:17;-2.37;92.65
68609;SHT31;55581;46.718;7.690;2023-12-04T02:20:43;-2.25;92.14
68609;SHT31;55581;46.718;7.690;2023-12-04T02:23:08;-2.18;92.16
68609;SHT31;55581;46.718;7.690;2023-12-04T02:25:35;-2.15;92.02
68609;SHT31;55581;46.718;7.690;2023-12-04T02:28:05;-2.06;92.09
68609;SHT31;55581;46.718;7.690;2023-12-04T02:30:34;-1.95;92.05
68609;SHT31;55581;46.718;7.690;2023-12-04T02:33:05;-1.87;91.80
68609;SHT31;55581;46.718;7.690;2023-12-04T02:35:34;-1.91;92.18
68609;SHT31;55581;46.718;7.690;2023-12-04T02:38:03;-2.08;92.01
68609;SHT31;55581;46.718;7.690;2023-12-04T02:40:29;-2.12;92.10
68609;SHT31;55581;46.718;7.690;2023-12-04T02:42:54;-2.26;90.01
68609;SHT31;55581;46.718;7.690;2023-12-04T02:45:20;-2.65;87.62
68609;SHT31;55581;46.718;7.690;2023-12-04T02:47:45;-2.78;88.38
68609;SHT31;55581;46.718;7.690;2023-12-04T02:50:11;-2.74;88.34
68609;SHT31;55581;46.718;7.690;2023-12-04T02:52:36;-2.92;88.19
68609;SHT31;55581;46.718;7.690;2023-12-04T02:55:02;-3.15;88.40
68609;SHT31;55581;46.718;7.690;2023-12-04T02:57:27;-3.24;88.76
68609;SHT31;55581;46.718;7.690;2023-12-04T02:59:53;-3.22;89.64
68609;SHT31;55581;46.718;7.690;2023-12-04T03:02:19;-3.22;89.52
68609;SHT31;55581;46.718;7.690;2023-12-04T03:04:45;-3.26;89.34
68609;SHT31;55581;46.718;7.690;2023-12-04T03:07:11;-3.33;89.08
68609;SHT31;55581;46.718;7.690;2023-12-04T03:09:37;-3.30;88.85
68609;SHT31;55581;46.718;7.690;2023-12-04T03:12:05;-3.35;89.42
68609;SHT31;55581;46.718;7.690;2023-12-04T03:14:30;-3.37;89.90
68609;SHT31;55581;46.718;7.690;2023-12-04T03:16:55;-3.36;90.13
68609;SHT31;55581;46.718;7.690;2023-12-04T03:19:21;-3.39;90.01
68609;SHT31;55581;46.718;7.690;2023-12-04T03:21:47;-3.35;90.44
68609;SHT31;55581;46.718;7.690;2023-12-04T03:24:13;-3.33;90.01
68609;SHT31;55581;46.718;7.690;2023-12-04T03:26:40;-3.28;90.14
68609;SHT31;55581;46.718;7.690;2023-12-04T03:29:05;-3.26;90.05
68609;SHT31;55581;46.718;7.690;2023-12-04T03:31:32;-3.19;91.04
68609;SHT31;55581;46.718;7.690;2023-12-04T03:34:01;-3.22;90.18
68609;SHT31;55581;46.718;7.690;2023-12-04T03:36:27;-3.22;90.34
68609;SHT31;55581;46.718;7.690;2023-12-04T03:38:53;-3.20;90.56
68609;SHT31;55581;46.718;7.690;2023-12-04T03:41:18;-3.23;90.84
68609;SHT31;55581;46.718;7.690;2023-12-04T03:43:44;-3.16;90.89
68609;SHT31;55581;46.718;7.690;2023-12-04T03:46:11;-3.22;90.65
68609;SHT31;55581;46.718;7.690;2023-12-04T03:48:37;-3.26;90.36
68609;SHT31;55581;46.718;7.690;2023-12-04T03:51:05;-3.20;90.73
68609;SHT31;55581;46.718;7.690;2023-12-04T03:53:31;-3.17;91.00
68609;SHT31;55581;46.718;7.690;2023-12-04T03:55:58;-3.13;91.24
68609;SHT31;55581;46.718;7.690;2023-12-04T03:58:24;-3.08;91.57
68609;SHT31;55581;46.718;7.690;2023-12-04T04:00:49;-3.08;90.84
68609;SHT31;55581;46.718;7.690;2023-12-04T04:03:15;-3.06;90.99
68609;SHT31;55581;46.718;7.690;2023-12-04T04:05:41;-3.05;91.58
68609;SHT31;55581;46.718;7.690;2023-12-04T04:08:07;-2.99;91.58
68609;SHT31;55581;46.718;7.690;2023-12-04T04:10:33;-2.93;90.95
68609;SHT31;55581;46.718;7.690;2023-12-04T04:12:58;-2.95;91.23
68609;SHT31;55581;46.718;7.690;2023-12-04T04:15:26;-2.91;91.45
68609;SHT31;55581;46.718;7.690;2023-12-04T04:17:54;-2.91;91.23
68609;SHT31;55581;46.718;7.690;2023-12-04T04:20:20;-2.78;91.90
68609;SHT31;55581;46.718;7.690;2023-12-04T04:22:48;-2.88;90.83
68609;SHT31;55581;46.718;7.690;2023-12-04T04:25:13;-2.84;91.69
68609;SHT31;55581;46.718;7.690;2023-12-04T04:27:39;-2.88;91.63
68609;SHT31;55581;46.718;7.690;2023-12-04T04:30:06;-2.89;91.65
68609;SHT31;55581;46.718;7.690;2023-12-04T04:32:33;-2.88;91.43
68609;SHT31;55581;46.718;7.690;2023-12-04T04:34:59;-2.87;91.96
68609;SHT31;55581;46.718;7.690;2023-12-04T04:37:25;-2.84;92.77
68609;SHT31;55581;46.718;7.690;2023-12-04T04:39:50;-2.82;92.28
68609;SHT31;55581;46.718;7.690;2023-12-04T04:42:15;-2.88;91.46
68609;SHT31;55581;46.718;7.690;2023-12-04T04:44:42;-2.87;91.60
68609;SHT31;55581;46.718;7.690;2023-12-04T04:47:09;-2.89;92.04
68609;SHT31;55581;46.718;7.690;2023-12-04T04:49:34;-2.92;91.18
68609;SHT31;55581;46.718;7.690;2023-12-04T04:52:00;-3.01;91.38
68609;SHT31;55581;46.718;7.690;2023-12-04T04:54:30;-3.05;90.84
68609;SHT31;55581;46.718;7.690;2023-12-04T04:56:58;-2.99;91.58
68609;SHT31;55581;46.718;7.690;2023-12-04T04:59:24;-2.93;90.96
68609;SHT31;55581;46.718;7.690;2023-12-04T05:01:50;-2.88;90.73
68609;SHT31;55581;46.718;7.690;2023-12-04T05:04:17;-2.81;90.70
68609;SHT31;55581;46.718;7.690;2023-12-04T05:06:43;-2.84;90.43
68609;SHT31;55581;46.718;7.690;2023-12-04T05:09:08;-2.80;90.44
68609;SHT31;55581;46.718;7.690;2023-12-04T05:11:33;-2.81;91.25
68609;SHT31;55581;46.718;7.690;2023-12-04T05:13:59;-2.71;91.51
68609;SHT31;55581;46.718;7.690;2023-12-04T05:16:24;-2.65;91.61
68609;SHT31;55581;46.718;7.690;2023-12-04T05:18:51;-2.61;91.51
68609;SHT31;55581;46.718;7.690;2023-12-04T05:21:18;-2.65;90.64
68609;SHT31;55581;46.718;7.690;2023-12-04T05:23:43;-2.53;91.51
68609;SHT31;55581;46.718;7.690;2023-12-04T05:26:10;-2.52;91.01
68609;SHT31;55581;46.718;7.690;2023-12-04T05:28:38;-2.50;90.84
68609;SHT31;55581;46.718;7.690;2023-12-04T05:31:04;-2.47;90.93
68609;SHT31;55581;46.718;7.690;2023-12-04T05:33:30;-2.40;92.53
68609;SHT31;55581;46.718;7.690;2023-12-04T05:35:55;-2.35;93.16
68609;SHT31;55581;46.718;7.690;2023-12-04T05:38:21;-2.33;93.22
68609;SHT31;55581;46.718;7.690;2023-12-04T05:40:46;-2.25;92.55
68609;SHT31;55581;46.718;7.690;2023-12-04T05:43:12;-2.36;91.65
68609;SHT31;55581;46.718;7.690;2023-12-04T05:45:40;-2.46;90.60
68609;SHT31;55581;46.718;7.690;2023-12-04T05:48:06;-2.42;90.68
68609;SHT31;55581;46.718;7.690;2023-12-04T05:50:31;-2.43;91.49
68609;SHT31;55581;46.718;7.690;2023-12-04T05:52:57;-2.44;91.39
68609;SHT31;55581;46.718;7.690;2023-12-04T05:55:24;-2.42;91.94
68609;SHT31;55581;46.718;7.690;2023-12-04T05:57:49;-2.36;91.97
68609;SHT31;55581;46.718;7.690;2023-12-04T06:00:15;-2.22;91.00
68609;SHT31;55581;46.718;7.690;2023-12-04T06:02:43;-2.23;91.21
68609;SHT31;55581;46.718;7.690;2023-12-04T06:05:09;-2.16;91.72
68609;SHT31;55581;46.718;7.690;2023-12-04T06:07:35;-2.10;91.43
68609;SHT31;55581;46.718;7.690;2023-12-04T06:10:03;-2.08;91.23
68609;SHT31;55581;46.718;7.690;2023-12-04T06:12:30;-2.08;91.05
68609;SHT31;55581;46.718;7.690;2023-12-04T06:14:55;-2.09;91.70
68609;SHT31;55581;46.718;7.690;2023-12-04T06:17:21;-2.05;92.38
68609;SHT31;55581;46.718;7.690;2023-12-04T06:19:46;-2.08;92.15
68609;SHT31;55581;46.718;7.690;2023-12-04T06:22:12;-2.08;92.68
68609;SHT31;55581;46.718;7.690;2023-12-04T06:24:38;-1.97;91.93
68609;SHT31;55581;46.718;7.690;2023-12-04T06:27:05;-1.94;92.47
68609;SHT31;55581;46.718;7.690;2023-12-04T06:29:33;-1.99;91.41
68609;SHT31;55581;46.718;7.690;2023-12-04T06:31:58;-2.05;90.97
68609;SHT31;55581;46.718;7.690;2023-12-04T06:34:24;-2.09;91.36
68609;SHT31;55581;46.718;7.690;2023-12-04T06:36:50;-2.08;91.64
68609;SHT31;55581;46.718;7.690;2023-12-04T06:39:16;-2.06;92.10
68609;SHT31;55581;46.718;7.690;2023-12-04T06:41:44;-2.05;91.92
68609;SHT31;55581;46.718;7.690;2023-12-04T06:44:12;-1.97;92.84
68609;SHT31;55581;46.718;7.690;2023-12-04T06:46:39;-1.94;92.21
68609;SHT31;55581;46.718;7.690;2023-12-04T06:49:05;-1.94;92.38
68609;SHT31;55581;46.718;7.690;2023-12-04T06:51:34;-1.89;91.86
68609;SHT31;55581;46.718;7.690;2023-12-04T06:54:00;-1.87;91.61
68609;SHT31;55581;46.718;7.690;2023-12-04T06:56:26;-1.87;91.73
68609;SHT31;55581;46.718;7.690;2023-12-04T06:58:55;-1.81;92.02
68609;SHT31;55581;46.718;7.690;2023-12-04T07:01:22;-1.77;91.62
68609;SHT31;55581;46.718;7.690;2023-12-04T07:03:52;-1.71;91.07
68609;SHT31;55581;46.718;7.690;2023-12-04T07:06:24;-1.67;91.83
68609;SHT31;55581;46.718;7.690;2023-12-04T07:08:57;-1.70;91.39
68609;SHT31;55581;46.718;7.690;2023-12-04T07:11:23;-1.81;91.56
68609;SHT31;55581;46.718;7.690;2023-12-04T07:13:48;-1.75;92.06
68609;SHT31;55581;46.718;7.690;2023-12-04T07:16:14;-1.72;92.20
68609;SHT31;55581;46.718;7.690;2023-12-04T07:18:39;-1.80;92.40
68609;SHT31;55581;46.718;7.690;2023-12-04T07:21:05;-1.75;92.80
68609;SHT31;55581;46.718;7.690;2023-12-04T07:23:30;-1.68;91.90
68609;SHT31;55581;46.718;7.690;2023-12-04T07:25:58;-1.71;92.33
68609;SHT31;55581;46.718;7.690;2023-12-04T07:28:23;-1.66;92.55
68609;SHT31;55581;46.718;7.690;2023-12-04T07:30:49;-1.59;92.46
68609;SHT31;55581;46.718;7.690;2023-12-04T07:33:14;-1.54;91.71
68609;SHT31;55581;46.718;7.690;2023-12-04T07:35:40;-1.46;91.65
68609;SHT31;55581;46.718;7.690;2023-12-04T07:38:06;-1.40;91.02
68609;SHT31;55581;46.718;7.690;2023-12-04T07:40:31;-1.42;91.13
68609;SHT31;55581;46.718;7.690;2023-12-04T07:42:57;-1.28;91.00
68609;SHT31;55581;46.718;7.690;2023-12-04T07:45:23;-1.23;91.68
68609;SHT31;55581;46.718;7.690;2023-12-04T07:47:50;-1.28;90.53
68609;SHT31;55581;46.718;7.690;2023-12-04T07:50:16;-1.23;89.97
68609;SHT31;55581;46.718;7.690;2023-12-04T07:52:45;-1.32;90.48
68609;SHT31;55581;46.718;7.690;2023-12-04T07:55:10;-1.33;90.62
68609;SHT31;55581;46.718;7.690;2023-12-04T07:57:36;-1.33;90.01
68609;SHT31;55581;46.718;7.690;2023-12-04T08:00:01;-1.39;89.78
68609;SHT31;55581;46.718;7.690;2023-12-04T08:02:27;-1.38;90.37
68609;SHT31;55581;46.718;7.690;2023-12-04T08:04:53;-1.33;89.87
68609;SHT31;55581;46.718;7.690;2023-12-04T08:07:20;-1.28;90.65
68609;SHT31;55581;46.718;7.690;2023-12-04T08:09:45;-1.26;90.82
68609;SHT31;55581;46.718;7.690;2023-12-04T08:12:11;-1.22;90.67
68609;SHT31;55581;46.718;7.690;2023-12-04T08:14:36;-1.13;89.87
68609;SHT31;55581;46.718;7.690;2023-12-04T08:17:04;-1.15;88.85
68609;SHT31;55581;46.718;7.690;2023-12-04T08:19:36;-1.13;89.15
68609;SHT31;55581;46.718;7.690;2023-12-04T08:22:03;-1.11;88.88
68609;SHT31;55581;46.718;7.690;2023-12-04T08:24:29;-1.15;88.52
68609;SHT31;55581;46.718;7.690;2023-12-04T08:26:57;-1.15;88.66
68609;SHT31;55581;46.718;7.690;2023-12-04T08:29:22;-1.20;89.40
68609;SHT31;55581;46.718;7.690;2023-12-04T08:31:48;-1.09;89.40
68609;SHT31;55581;46.718;7.690;2023-12-04T08:34:13;-0.99;89.87
68609;SHT31;55581;46.718;7.690;2023-12-04T08:36:39;-0.92;89.94
68609;SHT31;55581;46.718;7.690;2023-12-04T08:39:05;-0.81;89.78
68609;SHT31;55581;46.718;7.690;2023-12-04T08:41:30;-0.81;88.80
68609;SHT31;55581;46.718;7.690;2023-12-04T08:43:56;-0.73;88.68
68609;SHT31;55581;46.718;7.690;2023-12-04T08:46:21;-0.64;88.35
68609;SHT31;55581;46.718;7.690;2023-12-04T08:48:48;-0.58;88.32
68609;SHT31;55581;46.718;7.690;2023-12-04T08:51:17;-0.61;87.65
68609;SHT31;55581;46.718;7.690;2023-12-04T08:53:42;-0.52;87.32
68609;SHT31;55581;46.718;7.690;2023-12-04T08:56:11;-0.46;86.76
68609;SHT31;55581;46.718;7.690;2023-12-04T08:58:37;-0.49;86.99
68609;SHT31;55581;46.718;7.690;2023-12-04T09:01:04;-0.47;87.50
68609;SHT31;55581;46.718;7.690;2023-12-04T09:03:32;-0.50;87.86
68609;SHT31;55581;46.718;7.690;2023-12-04T09:05:58;-0.30;88.08
68609;SHT31;55581;46.718;7.690;2023-12-04T09:08:24;-0.16;87.37
68609;SHT31;55581;46.718;7.690;2023-12-04T09:10:53;-0.26;86.92
68609;SHT31;55581;46.718;7.690;2023-12-04T09:13:18;-0.12;87.80
68609;SHT31;55581;46.718;7.690;2023-12-04T09:15:45;-0.05;87.57
68609;SHT31;55581;46.718;7.690;2023-12-04T09:18:10;0.02;86.63
68609;SHT31;55581;46.718;7.690;2023-12-04T09:20:36;0.01;86.76
68609;SHT31;55581;46.718;7.690;2023-12-04T09:23:01;0.02;86.21
68609;SHT31;55581;46.718;7.690;2023-12-04T09:25:27;0.12;86.06
68609;SHT31;55581;46.718;7.690;2023-12-04T09:27:55;0.05;86.43
68609;SHT31;55581;46.718;7.690;2023-12-04T09:30:21;-0.13;85.77
68609;SHT31;55581;46.718;7.690;2023-12-04T09:32:46;-0.22;86.94
68609;SHT31;55581;46.718;7.690;2023-12-04T09:35:12;-0.19;86.51
68609;SHT31;55581;46.718;7.690;2023-12-04T09:37:37;-0.37;87.49
68609;SHT31;55581;46.718;7.690;2023-12-04T09:40:03;-0.50;88.15
68609;SHT31;55581;46.718;7.690;2023-12-04T09:42:31;-0.32;86.70
68609;SHT31;55581;46.718;7.690;2023-12-04T09:44:58;-0.30;86.31
68609;SHT31;55581;46.718;7.690;2023-12-04T09:47:25;-0.28;86.86
68609;SHT31;55581;46.718;7.690;2023-12-04T09:49:56;-0.18;87.68
68609;SHT31;55581;46.718;7.690;2023-12-04T09:52:22;0.05;86.41
68609;SHT31;55581;46.718;7.690;2023-12-04T09:54:48;0.06;86.60
68609;SHT31;55581;46.718;7.690;2023-12-04T09:57:16;0.10;86.55
68609;SHT31;55581;46.718;7.690;2023-12-04T09:59:44;0.17;86.26
68609;SHT31;55581;46.718;7.690;2023-12-04T10:02:11;0.32;86.66
68609;SHT31;55581;46.718;7.690;2023-12-04T10:04:37;0.34;86.27
68609;SHT31;55581;46.718;7.690;2023-12-04T10:07:03;0.37;85.72
68609;SHT31;55581;46.718;7.690;2023-12-04T10:09:31;0.30;85.03
68609;SHT31;55581;46.718;7.690;2023-12-04T10:11:57;0.43;85.06
68609;SHT31;55581;46.718;7.690;2023-12-04T10:14:23;0.47;83.67
68609;SHT31;55581;46.718;7.690;2023-12-04T10:16:49;0.53;83.43
68609;SHT31;55581;46.718;7.690;2023-12-04T10:19:15;0.46;83.57
68609;SHT31;55581;46.718;7.690;2023-12-04T10:21:45;0.58;83.91
68609;SHT31;55581;46.718;7.690;2023-12-04T10:24:11;0.65;83.77
68609;SHT31;55581;46.718;7.690;2023-12-04T10:26:38;0.71;84.00
68609;SHT31;55581;46.718;7.690;2023-12-04T10:29:15;0.81;83.00
68609;SHT31;55581;46.718;7.690;2023-12-04T10:31:40;0.91;82.78
68609;SHT31;55581;46.718;7.690;2023-12-04T10:34:08;1.03;82.25
68609;SHT31;55581;46.718;7.690;2023-12-04T10:36:41;1.13;81.85
68609;SHT31;55581;46.718;7.690;2023-12-04T10:39:07;1.35;81.09
68609;SHT31;55581;46.718;7.690;2023-12-04T10:41:32;1.43;80.35
68609;SHT31;55581;46.718;7.690;2023-12-04T10:43:58;1.47;80.81
68609;SHT31;55581;46.718;7.690;2023-12-04T10:46:27;1.39;79.90
68609;SHT31;55581;46.718;7.690;2023-12-04T10:48:53;1.60;80.50
68609;SHT31;55581;46.718;7.690;2023-12-04T10:51:19;1.37;80.67
68609;SHT31;55581;46.718;7.690;2023-12-04T10:53:47;1.26;82.50
68609;SHT31;55581;46.718;7.690;2023-12-04T10:56:19;1.27;81.89
68609;SHT31;55581;46.718;7.690;2023-12-04T10:58:53;1.50;81.83
68609;SHT31;55581;46.718;7.690;2023-12-04T11:01:19;1.58;81.60
68609;SHT31;55581;46.718;7.690;2023-12-04T11:03:48;1.65;81.49
68609;SHT31;55581;46.718;7.690;2023-12-04T11:06:20;1.85;81.73
68609;SHT31;55581;46.718;7.690;2023-12-04T11:08:47;1.85;80.76
68609;SHT31;55581;46.718;7.690;2023-12-04T11:11:21;1.74;81.62
68609;SHT31;55581;46.718;7.690;2023-12-04T11:13:54;1.68;81.40
68609;SHT31;55581;46.718;7.690;2023-12-04T11:16:51;1.68;80.96
68609;SHT31;55581;46.718;7.690;2023-12-04T11:22:14;1.88;81.09
68609;SHT31;55581;46.718;7.690;2023-12-04T11:24:42;1.86;80.87
68609;SHT31;55581;46.718;7.690;2023-12-04T11:27:11;1.95;81.72
68609;SHT31;55581;46.718;7.690;2023-12-04T11:29:39;1.73;81.99
68609;SHT31;55581;46.718;7.690;2023-12-04T11:32:06;1.61;82.53
68609;SHT31;55581;46.718;7.690;2023-12-04T11:34:35;1.78;82.55
68609;SHT31;55581;46.718;7.690;2023-12-04T11:37:04;1.85;80.80
68609;SHT31;55581;46.718;7.690;2023-12-04T11:39:35;1.85;81.43
68609;SHT31;55581;46.718;7.690;2023-12-04T11:42:06;1.73;82.45
68609;SHT31;55581;46.718;7.690;2023-12-04T11:44:33;1.63;83.55
68609;SHT31;55581;46.718;7.690;2023-12-04T11:47:06;1.60;83.98
68609;SHT31;55581;46.718;7.690;2023-12-04T11:49:33;1.53;84.15
68609;SHT31;55581;46.718;7.690;2023-12-04T11:52:03;1.53;84.15
68609;SHT31;55581;46.718;7.690;2023-12-04T11:54:59;1.58;84.24
68609;SHT31;55581;46.718;7.690;2023-12-04T11:57:26;1.61;84.68
68609;SHT31;55581;46.718;7.690;2023-12-04T12:00:08;1.75;84.38
68609;SHT31;55581;46.718;7.690;2023-12-04T12:02:41;1.73;82.76
68609;SHT31;55581;46.718;7.690;2023-12-04T12:05:13;1.70;82.53
68609;SHT31;55581;46.718;7.690;2023-12-04T12:07:38;1.75;83.88
68609;SHT31;55581;46.718;7.690;2023-12-04T12:10:04;1.64;83.10
68609;SHT31;55581;46.718;7.690;2023-12-04T12:12:31;1.54;83.47
68609;SHT31;55581;46.718;7.690;2023-12-04T12:14:57;1.61;84.48
68609;SHT31;55581;46.718;7.690;2023-12-04T12:17:24;1.58;84.82
68609;SHT31;55581;46.718;7.690;2023-12-04T12:19:51;1.67;85.35
68609;SHT31;55581;46.718;7.690;2023-12-04T12:22:17;1.74;84.77
68609;SHT31;55581;46.718;7.690;2023-12-04T12:24:42;1.67;82.83
68609;SHT31;55581;46.718;7.690;2023-12-04T12:27:09;1.53;83.45
68609;SHT31;55581;46.718;7.690;2023-12-04T12:29:34;1.64;83.26
68609;SHT31;55581;46.718;7.690;2023-12-04T12:32:00;1.57;83.79
68609;SHT31;55581;46.718;7.690;2023-12-04T12:34:26;1.67;84.33
68609;SHT31;55581;46.718;7.690;2023-12-04T12:36:52;1.63;84.10
68609;SHT31;55581;46.718;7.690;2023-12-04T12:39:18;1.63;84.82
68609;SHT31;55581;46.718;7.690;2023-12-04T12:41:51;1.61;84.14
68609;SHT31;55581;46.718;7.690;2023-12-04T12:44:16;1.64;85.08
68609;SHT31;55581;46.718;7.690;2023-12-04T12:46:42;1.68;85.12
68609;SHT31;55581;46.718;7.690;2023-12-04T12:49:14;1.81;84.03
68609;SHT31;55581;46.718;7.690;2023-12-04T12:51:40;1.71;84.70
68609;SHT31;55581;46.718;7.690;2023-12-04T12:54:05;1.73;84.65
68609;SHT31;55581;46.718;7.690;2023-12-04T12:56:30;1.68;84.79
68609;SHT31;55581;46.718;7.690;2023-12-04T12:58:56;1.88;84.28
68609;SHT31;55581;46.718;7.690;2023-12-04T13:01:30;1.94;84.22
68609;SHT31;55581;46.718;7.690;2023-12-04T13:03:57;2.01;83.70
68609;SHT31;55581;46.718;7.690;2023-12-04T13:06:25;1.88;83.38
68609;SHT31;55581;46.718;7.690;2023-12-04T13:08:51;1.74;84.37
68609;SHT31;55581;46.718;7.690;2023-12-04T13:11:20;1.63;85.83
68609;SHT31;55581;46.718;7.690;2023-12-04T13:13:46;1.67;86.37
68609;SHT31;55581;46.718;7.690;2023-12-04T13:16:12;1.73;86.97
68609;SHT31;55581;46.718;7.690;2023-12-04T13:18:41;1.88;86.94
68609;SHT31;55581;46.718;7.690;2023-12-04T13:21:06;2.03;85.56
68609;SHT31;55581;46.718;7.690;2023-12-04T13:23:35;2.18;85.93
68609;SHT31;55581;46.718;7.690;2023-12-04T13:26:02;2.36;85.08
68609;SHT31;55581;46.718;7.690;2023-12-04T13:28:29;2.37;85.45
68609;SHT31;55581;46.718;7.690;2023-12-04T13:30:55;2.49;84.55
68609;SHT31;55581;46.718;7.690;2023-12-04T13:33:21;2.57;84.49
68609;SHT31;55581;46.718;7.690;2023-12-04T13:35:46;2.51;84.41
68609;SHT31;55581;46.718;7.690;2023-12-04T13:38:12;2.56;84.75
68609;SHT31;55581;46.718;7.690;2023-12-04T13:40:41;2.49;84.03
68609;SHT31;55581;46.718;7.690;2023-12-04T13:43:15;2.46;85.00
68609;SHT31;55581;46.718;7.690;2023-12-04T13:46:02;2.46;84.80
68609;SHT31;55581;46.718;7.690;2023-12-04T13:48:36;2.43;83.44
68609;SHT31;55581;46.718;7.690;2023-12-04T13:51:05;2.26;83.48
68609;SHT31;55581;46.718;7.690;2023-12-04T13:53:33;2.16;84.15
68609;SHT31;55581;46.718;7.690;2023-12-04T13:55:58;2.03;84.02
68609;SHT31;55581;46.718;7.690;2023-12-04T13:58:24;2.03;85.84
68609;SHT31;55581;46.718;7.690;2023-12-04T14:01:10;1.92;85.19
68609;SHT31;55581;46.718;7.690;2023-12-04T14:03:43;1.89;85.59
68609;SHT31;55581;46.718;7.690;2023-12-04T14:06:15;1.74;83.57
68609;SHT31;55581;46.718;7.690;2023-12-04T14:08:41;1.54;83.96
68609;SHT31;55581;46.718;7.690;2023-12-04T14:11:09;1.50;85.90
68609;SHT31;55581;46.718;7.690;2023-12-04T14:13:41;1.51;84.08
68609;SHT31;55581;46.718;7.690;2023-12-04T14:16:09;1.47;83.94
68609;SHT31;55581;46.718;7.690;2023-12-04T14:18:38;1.36;85.09
68609;SHT31;55581;46.718;7.690;2023-12-04T14:21:04;1.08;86.13
68609;SHT31;55581;46.718;7.690;2023-12-04T14:23:29;1.12;86.24
68609;SHT31;55581;46.718;7.690;2023-12-04T14:25:55;0.98;85.54
68609;SHT31;55581;46.718;7.690;2023-12-04T14:28:20;1.01;86.47
68609;SHT31;55581;46.718;7.690;2023-12-04T14:30:48;0.98;86.55
68609;SHT31;55581;46.718;7.690;2023-12-04T14:33:15;1.01;84.93
68609;SHT31;55581;46.718;7.690;2023-12-04T14:35:42;0.95;86.97
68609;SHT31;55581;46.718;7.690;2023-12-04T14:38:10;1.01;86.78
68609;SHT31;55581;46.718;7.690;2023-12-04T14:40:36;1.08;86.48
68609;SHT31;55581;46.718;7.690;2023-12-04T14:43:01;0.95;84.72
68609;SHT31;55581;46.718;7.690;2023-12-04T14:45:27;1.01;86.04
68609;SHT31;55581;46.718;7.690;2023-12-04T14:47:54;0.93;85.85
68609;SHT31;55581;46.718;7.690;2023-12-04T14:50:23;0.87;86.11
68609;SHT31;55581;46.718;7.690;2023-12-04T14:52:51;0.85;86.30
68609;SHT31;55581;46.718;7.690;2023-12-04T14:55:19;0.84;85.50
68609;SHT31;55581;46.718;7.690;2023-12-04T14:57:48;0.78;86.82
68609;SHT31;55581;46.718;7.690;2023-12-04T15:00:20;0.68;86.44
68609;SHT31;55581;46.718;7.690;2023-12-04T15:03:06;0.63;86.49
68609;SHT31;55581;46.718;7.690;2023-12-04T15:05:55;0.67;87.89
68609;SHT31;55581;46.718;7.690;2023-12-04T15:08:39;0.70;86.69
68609;SHT31;55581;46.718;7.690;2023-12-04T15:11:23;0.70;86.25
68609;SHT31;55581;46.718;7.690;2023-12-04T15:14:07;0.67;87.98
68609;SHT31;55581;46.718;7.690;2023-12-04T15:16:33;0.68;88.52
68609;SHT31;55581;46.718;7.690;2023-12-04T15:19:11;0.68;88.04
68609;SHT31;55581;46.718;7.690;2023-12-04T15:21:55;0.61;89.16
68609;SHT31;55581;46.718;7.690;2023-12-04T15:24:23;0.67;89.09
68609;SHT31;55581;46.718;7.690;2023-12-04T15:26:49;0.61;87.25
68609;SHT31;55581;46.718;7.690;2023-12-04T15:29:15;0.64;87.71
68609;SHT31;55581;46.718;7.690;2023-12-04T15:31:46;0.58;88.09
68609;SHT31;55581;46.718;7.690;2023-12-04T15:34:33;0.53;90.56
68609;SHT31;55581;46.718;7.690;2023-12-04T15:37:01;0.47;89.93
68609;SHT31;55581;46.718;7.690;2023-12-04T15:39:31;0.53;90.94
68609;SHT31;55581;46.718;7.690;2023-12-04T15:41:57;0.64;90.48